createdAt,value
2022-08-26T00:01:29.111Z,24.29
2022-08-26T00:03:56.972Z,24.21
2022-08-26T00:06:25.113Z,24.21
2022-08-26T00:08:52.106Z,24.01
2022-08-26T00:11:26.846Z,23.86
2022-08-26T00:13:57.481Z,24.13
2022-08-26T00:16:27.106Z,23.37
2022-08-26T00:18:54.518Z,22.86
2022-08-26T00:21:21.415Z,22.87
2022-08-26T00:23:48.413Z,23.05
2022-08-26T00:26:15.637Z,23.50
2022-08-26T00:28:42.584Z,23.98
2022-08-26T00:31:11.123Z,23.85
2022-08-26T00:33:39.243Z,23.56
2022-08-26T00:36:06.949Z,23.77
2022-08-26T00:38:35.333Z,23.54
2022-08-26T00:41:05.871Z,23.69
2022-08-26T00:43:46.300Z,23.57
2022-08-26T00:46:23.525Z,23.64
2022-08-26T00:48:54.017Z,23.77
2022-08-26T00:51:29.717Z,23.34
2022-08-26T00:54:05.426Z,23.55
2022-08-26T00:56:47.244Z,23.55
2022-08-26T00:59:17.644Z,23.29
2022-08-26T01:01:45.985Z,23.34
2022-08-26T01:04:17.309Z,23.47
2022-08-26T01:06:46.180Z,23.41
2022-08-26T01:09:13.313Z,23.33
2022-08-26T01:11:40.352Z,23.33
2022-08-26T01:14:08.556Z,23.22
2022-08-26T01:16:37.049Z,23.15
2022-08-26T01:19:15.970Z,23.35
2022-08-26T01:21:53.722Z,23.33
2022-08-26T01:24:20.636Z,23.18
2022-08-26T01:26:48.592Z,23.08
2022-08-26T01:29:20.121Z,23.06
2022-08-26T01:31:52.617Z,22.97
2022-08-26T01:34:25.984Z,22.89
2022-08-26T01:36:58.764Z,22.97
2022-08-26T01:39:25.642Z,22.87
2022-08-26T01:41:55.988Z,22.76
2022-08-26T01:44:25.501Z,23.01
2022-08-26T01:46:53.573Z,23.01
2022-08-26T01:49:22.294Z,23.03
2022-08-26T01:51:51.837Z,22.99
2022-08-26T01:54:20.519Z,22.71
2022-08-26T01:56:49.971Z,22.70
2022-08-26T01:59:20.188Z,22.70
2022-08-26T02:01:48.385Z,22.76
2022-08-26T02:04:27.217Z,22.90
2022-08-26T02:06:56.240Z,22.78
2022-08-26T02:09:24.685Z,22.74
2022-08-26T02:11:52.704Z,22.72
2022-08-26T02:14:26.726Z,22.85
2022-08-26T02:16:55.289Z,22.76
2022-08-26T02:19:28.543Z,22.83
2022-08-26T02:21:58.316Z,22.54
2022-08-26T02:24:29.269Z,22.62
2022-08-26T02:26:59.005Z,22.89
2022-08-26T02:29:32.882Z,22.82
2022-08-26T02:31:59.611Z,22.83
2022-08-26T02:34:31.085Z,22.56
2022-08-26T02:37:01.271Z,22.56
2022-08-26T02:39:29.638Z,22.48
2022-08-26T02:41:56.900Z,22.17
2022-08-26T02:44:23.606Z,21.98
2022-08-26T02:46:52.855Z,22.11
2022-08-26T02:49:22.338Z,22.14
2022-08-26T02:51:49.851Z,22.46
2022-08-26T02:54:18.923Z,22.55
2022-08-26T02:56:45.749Z,22.58
2022-08-26T02:59:12.873Z,22.35
2022-08-26T03:01:40.715Z,22.48
2022-08-26T03:04:11.501Z,22.35
2022-08-26T03:06:39.076Z,22.35
2022-08-26T03:09:07.952Z,22.32
2022-08-26T03:11:35.701Z,22.24
2022-08-26T03:14:03.884Z,22.16
2022-08-26T03:16:37.549Z,22.37
2022-08-26T03:19:06.837Z,22.33
2022-08-26T03:21:36.194Z,22.26
2022-08-26T03:24:03.016Z,22.22
2022-08-26T03:26:30.160Z,22.38
2022-08-26T03:29:15.674Z,22.38
2022-08-26T03:31:43.530Z,22.30
2022-08-26T03:34:11.328Z,21.90
2022-08-26T03:36:38.821Z,21.97
2022-08-26T03:39:08.932Z,22.02
2022-08-26T03:41:36.832Z,22.10
2022-08-26T03:44:06.255Z,22.05
2022-08-26T03:46:33.613Z,21.88
2022-08-26T03:49:01.658Z,22.11
2022-08-26T03:51:29.119Z,21.92
2022-08-26T03:53:57.054Z,21.70
2022-08-26T03:56:23.980Z,21.99
2022-08-26T03:58:51.050Z,21.74
2022-08-26T04:01:17.969Z,21.99
2022-08-26T04:04:00.169Z,21.90
2022-08-26T04:06:30.519Z,21.86
2022-08-26T04:08:59.026Z,21.02
2022-08-26T04:11:30.616Z,21.14
2022-08-26T04:14:03.891Z,21.31
2022-08-26T04:16:31.341Z,21.37
2022-08-26T04:18:58.122Z,21.60
2022-08-26T04:21:26.327Z,21.82
2022-08-26T04:23:54.387Z,21.62
2022-08-26T04:26:22.912Z,21.69
2022-08-26T04:28:52.740Z,21.44
2022-08-26T04:31:20.017Z,21.58
2022-08-26T04:33:49.989Z,21.56
2022-08-26T04:36:20.255Z,21.54
2022-08-26T04:38:48.007Z,21.69
2022-08-26T04:41:14.968Z,21.75
2022-08-26T04:43:43.897Z,21.54
2022-08-26T04:46:12.997Z,21.57
2022-08-26T04:48:41.435Z,21.55
2022-08-26T04:51:09.698Z,21.27
2022-08-26T04:53:37.532Z,21.37
2022-08-26T04:56:05.174Z,21.50
2022-08-26T04:58:32.675Z,21.59
2022-08-26T05:00:59.513Z,21.76
2022-08-26T05:03:30.320Z,21.60
2022-08-26T05:05:58.228Z,21.69
2022-08-26T05:08:25.026Z,22.21
2022-08-26T05:10:56.236Z,21.90
2022-08-26T05:13:26.332Z,21.80
2022-08-26T05:15:53.643Z,21.74
2022-08-26T05:18:23.401Z,22.06
2022-08-26T05:20:54.585Z,22.21
2022-08-26T05:23:23.211Z,22.43
2022-08-26T05:25:55.773Z,22.32
2022-08-26T05:28:23.029Z,22.35
2022-08-26T05:30:50.847Z,22.50
2022-08-26T05:33:19.016Z,22.50
2022-08-26T05:35:46.420Z,22.64
2022-08-26T05:38:16.401Z,22.65
2022-08-26T05:40:47.391Z,22.73
2022-08-26T05:43:14.659Z,22.93
2022-08-26T05:45:45.933Z,22.99
2022-08-26T05:48:15.373Z,22.99
2022-08-26T05:50:49.136Z,23.31
2022-08-26T05:53:19.043Z,23.27
2022-08-26T05:55:54.752Z,23.05
2022-08-26T05:58:23.512Z,23.24
2022-08-26T06:00:58.970Z,23.48
2022-08-26T06:03:27.249Z,23.36
2022-08-26T06:05:54.275Z,23.76
2022-08-26T06:08:21.295Z,23.91
2022-08-26T06:10:51.647Z,23.70
2022-08-26T06:13:22.278Z,24.05
2022-08-26T06:15:50.543Z,24.08
2022-08-26T06:18:34.786Z,24.36
2022-08-26T06:21:23.529Z,24.41
2022-08-26T06:24:10.829Z,24.49
2022-08-26T06:26:39.307Z,24.36
2022-08-26T06:29:09.890Z,24.46
2022-08-26T06:31:37.065Z,24.46
2022-08-26T06:34:10.542Z,24.40
2022-08-26T06:36:39.441Z,24.62
2022-08-26T06:39:07.937Z,24.87
2022-08-26T06:41:34.976Z,25.06
2022-08-26T06:44:05.889Z,25.08
2022-08-26T06:46:33.829Z,25.08
2022-08-26T06:49:00.755Z,25.22
2022-08-26T06:51:30.467Z,25.24
2022-08-26T06:54:00.166Z,25.49
2022-08-26T06:56:33.115Z,25.49
2022-08-26T06:59:00.287Z,25.57
2022-08-26T07:01:28.246Z,25.64
2022-08-26T07:03:58.269Z,25.65
2022-08-26T07:06:27.399Z,25.63
2022-08-26T07:09:04.736Z,25.81
2022-08-26T07:11:33.257Z,26.02
2022-08-26T07:14:00.701Z,25.90
2022-08-26T07:16:28.936Z,26.33
2022-08-26T07:18:57.267Z,26.45
2022-08-26T07:21:24.965Z,26.47
2022-08-26T07:23:57.513Z,26.60
2022-08-26T07:26:28.912Z,26.74
2022-08-26T07:28:57.560Z,26.75
2022-08-26T07:31:28.347Z,26.87
2022-08-26T07:33:57.084Z,26.86
2022-08-26T07:36:28.175Z,27.05
2022-08-26T07:38:55.480Z,27.03
2022-08-26T07:41:25.366Z,27.25
2022-08-26T07:43:53.804Z,27.30
2022-08-26T07:46:20.671Z,27.57
2022-08-26T07:48:53.756Z,27.69
2022-08-26T07:51:21.974Z,27.59
2022-08-26T07:53:52.461Z,27.74
2022-08-26T07:56:21.802Z,27.75
2022-08-26T07:58:51.293Z,27.81
2022-08-26T08:01:19.211Z,27.90
2022-08-26T08:03:45.973Z,27.97
2022-08-26T08:06:12.713Z,28.03
2022-08-26T08:08:41.423Z,28.12
2022-08-26T08:11:08.376Z,28.30
2022-08-26T08:13:38.060Z,28.48
2022-08-26T08:16:05.673Z,28.42
2022-08-26T08:18:37.143Z,28.44
2022-08-26T08:21:21.109Z,28.54
2022-08-26T08:23:54.434Z,28.67
2022-08-26T08:26:22.366Z,28.79
2022-08-26T08:28:49.772Z,28.95
2022-08-26T08:31:56.432Z,29.37
2022-08-26T08:34:19.194Z,29.91
2022-08-26T08:36:48.603Z,30.42
2022-08-26T08:39:17.073Z,30.74
2022-08-26T08:42:08.209Z,30.99
2022-08-26T08:44:40.259Z,30.66
2022-08-26T08:47:34.242Z,30.76
2022-08-26T08:50:32.471Z,30.39
2022-08-26T08:53:09.006Z,30.30
2022-08-26T08:56:14.443Z,30.52
2022-08-26T08:58:57.686Z,30.58
2022-08-26T09:01:24.374Z,30.30
2022-08-26T09:04:13.454Z,30.88
2022-08-26T09:06:47.150Z,30.87
2022-08-26T09:09:23.760Z,30.74
2022-08-26T09:11:50.606Z,30.84
2022-08-26T09:14:17.718Z,31.15
2022-08-26T09:16:57.421Z,31.12
2022-08-26T09:19:33.502Z,31.03
2022-08-26T09:22:04.614Z,30.89
2022-08-26T09:24:40.888Z,30.84
2022-08-26T09:27:11.457Z,31.09
2022-08-26T09:29:43.435Z,31.43
2022-08-26T09:32:25.018Z,31.63
2022-08-26T09:34:59.417Z,31.57
2022-08-26T09:37:35.650Z,30.96
2022-08-26T09:40:23.670Z,31.79
2022-08-26T09:43:08.904Z,32.07
2022-08-26T09:45:36.627Z,32.01
2022-08-26T09:48:03.851Z,32.11
2022-08-26T09:50:36.698Z,32.63
2022-08-26T09:53:17.461Z,32.52
2022-08-26T09:55:50.049Z,32.76
2022-08-26T09:58:35.475Z,32.87
2022-08-26T10:01:09.142Z,33.01
2022-08-26T10:03:39.132Z,32.73
2022-08-26T10:06:17.840Z,32.61
2022-08-26T10:09:08.270Z,32.69
2022-08-26T10:12:05.455Z,32.57
2022-08-26T10:17:43.371Z,32.60
2022-08-26T10:20:23.419Z,32.60
2022-08-26T10:23:07.168Z,32.57
2022-08-26T10:25:51.424Z,32.82
2022-08-26T10:28:52.567Z,32.78
2022-08-26T10:31:44.527Z,32.76
2022-08-26T10:34:14.054Z,32.61
2022-08-26T10:37:13.906Z,32.79
2022-08-26T10:40:11.289Z,32.76
2022-08-26T10:43:09.925Z,33.20
2022-08-26T10:45:43.578Z,33.41
2022-08-26T10:48:17.248Z,33.77
2022-08-26T10:50:47.635Z,34.35
2022-08-26T10:53:25.171Z,34.92
2022-08-26T10:56:24.970Z,34.98
2022-08-26T10:59:31.038Z,35.53
2022-08-26T11:02:28.050Z,35.58
2022-08-26T11:05:05.517Z,35.79
2022-08-26T11:07:43.763Z,35.81
2022-08-26T11:10:31.519Z,35.99
2022-08-26T11:13:01.030Z,36.12
2022-08-26T11:15:29.396Z,35.84
2022-08-26T11:18:00.158Z,35.75
2022-08-26T11:20:30.096Z,36.53
2022-08-26T11:23:22.480Z,39.18
2022-08-26T11:25:59.022Z,40.28
2022-08-26T11:28:34.385Z,41.29
2022-08-26T11:31:01.782Z,41.96
2022-08-26T11:33:50.889Z,41.82
2022-08-26T11:36:36.487Z,41.81
2022-08-26T11:39:53.874Z,42.43
2022-08-26T11:42:31.595Z,40.49
2022-08-26T11:45:01.343Z,41.00
2022-08-26T11:47:32.164Z,39.69
2022-08-26T11:50:19.206Z,38.47
2022-08-26T11:52:55.895Z,37.56
2022-08-26T11:55:23.266Z,36.65
2022-08-26T11:57:54.557Z,35.78
2022-08-26T12:00:27.484Z,35.34
2022-08-26T12:03:02.501Z,34.61
2022-08-26T12:05:31.678Z,34.70
2022-08-26T12:08:05.882Z,34.79
2022-08-26T12:10:34.742Z,34.18
2022-08-26T12:13:03.281Z,34.40
2022-08-26T12:15:32.189Z,34.27
2022-08-26T12:18:20.639Z,34.09
2022-08-26T12:20:58.093Z,34.48
2022-08-26T12:23:41.870Z,35.16
2022-08-26T12:26:20.555Z,35.58
2022-08-26T12:28:52.663Z,36.49
2022-08-26T12:31:22.721Z,36.48
2022-08-26T12:33:50.039Z,35.88
2022-08-26T12:36:27.503Z,36.24
2022-08-26T12:38:58.229Z,36.44
2022-08-26T12:41:44.043Z,36.56
2022-08-26T12:44:34.830Z,36.65
2022-08-26T12:47:08.467Z,36.25
2022-08-26T12:49:38.043Z,36.34
2022-08-26T12:52:29.910Z,36.99
2022-08-26T12:55:02.715Z,36.84
2022-08-26T12:57:36.629Z,36.08
2022-08-26T13:00:41.001Z,36.29
2022-08-26T13:03:39.091Z,35.61
2022-08-26T13:06:15.459Z,35.44
2022-08-26T13:09:01.406Z,35.18
2022-08-26T13:11:31.885Z,35.03
2022-08-26T13:14:07.249Z,34.58
2022-08-26T13:16:35.751Z,34.61
2022-08-26T13:19:10.109Z,35.20
2022-08-26T13:21:55.331Z,35.22
2022-08-26T13:24:27.663Z,34.99
2022-08-26T13:26:54.592Z,34.70
2022-08-26T13:29:21.287Z,34.25
2022-08-26T13:31:48.331Z,33.67
2022-08-26T13:34:19.739Z,33.34
2022-08-26T13:36:48.091Z,33.05
2022-08-26T13:39:14.744Z,32.73
2022-08-26T13:41:42.413Z,33.13
2022-08-26T13:44:09.799Z,32.66
2022-08-26T13:46:36.720Z,32.66
2022-08-26T13:49:03.819Z,32.73
2022-08-26T13:51:31.481Z,32.55
2022-08-26T13:53:59.295Z,32.59
2022-08-26T13:56:29.603Z,32.63
2022-08-26T13:58:57.901Z,32.25
2022-08-26T14:01:24.710Z,32.02
2022-08-26T14:03:51.739Z,31.55
2022-08-26T14:06:19.036Z,31.28
2022-08-26T14:08:46.012Z,30.26
2022-08-26T14:11:13.081Z,30.33
2022-08-26T14:13:39.949Z,29.73
2022-08-26T14:16:13.411Z,29.79
2022-08-26T14:18:45.188Z,29.50
2022-08-26T14:21:14.527Z,29.42
2022-08-26T14:23:41.740Z,29.42
2022-08-26T14:26:11.670Z,28.96
2022-08-26T14:28:59.839Z,28.28
2022-08-26T14:31:29.243Z,27.84
2022-08-26T14:34:03.543Z,27.14
2022-08-26T14:36:33.080Z,26.60
2022-08-26T14:39:11.110Z,26.19
2022-08-26T14:42:04.708Z,26.78
2022-08-26T14:44:33.359Z,26.58
2022-08-26T14:47:02.316Z,26.26
2022-08-26T14:49:31.227Z,25.33
2022-08-26T14:51:58.445Z,25.02
2022-08-26T14:54:25.223Z,25.17
2022-08-26T14:56:54.987Z,25.23
2022-08-26T14:59:25.571Z,25.15
2022-08-26T15:01:53.395Z,24.93
2022-08-26T15:04:20.788Z,25.41
2022-08-26T15:06:48.167Z,25.59
2022-08-26T15:09:15.804Z,25.53
2022-08-26T15:11:42.973Z,25.36
2022-08-26T15:14:19.047Z,25.34
2022-08-26T15:16:51.664Z,25.16
2022-08-26T15:19:19.079Z,24.97
2022-08-26T15:21:47.358Z,24.73
2022-08-26T15:24:16.975Z,23.58
2022-08-26T15:26:44.977Z,22.31
2022-08-26T15:29:11.794Z,21.84
2022-08-26T15:31:40.625Z,22.49
2022-08-26T15:34:13.339Z,22.53
2022-08-26T15:36:44.847Z,22.22
2022-08-26T15:39:12.591Z,23.00
2022-08-26T15:41:39.916Z,23.08
2022-08-26T15:44:08.057Z,22.97
2022-08-26T15:46:35.869Z,23.32
2022-08-26T15:49:04.552Z,23.19
2022-08-26T15:51:45.449Z,23.69
2022-08-26T15:54:13.611Z,23.90
2022-08-26T15:56:40.314Z,24.16
2022-08-26T15:59:08.111Z,24.56
2022-08-26T16:01:35.680Z,24.59
2022-08-26T16:04:03.701Z,24.69
2022-08-26T16:06:33.209Z,24.25
2022-08-26T16:09:00.946Z,24.24
2022-08-26T16:11:28.597Z,24.79
2022-08-26T16:13:55.769Z,24.85
2022-08-26T16:16:23.204Z,25.02
2022-08-26T16:18:50.422Z,24.19
2022-08-26T16:21:21.379Z,24.26
2022-08-26T16:23:48.468Z,24.65
2022-08-26T16:26:21.080Z,24.91
2022-08-26T16:28:48.078Z,24.58
2022-08-26T16:31:15.812Z,24.59
2022-08-26T16:33:42.890Z,24.47
2022-08-26T16:36:10.835Z,24.85
2022-08-26T16:38:38.875Z,24.81
2022-08-26T16:41:06.582Z,24.84
2022-08-26T16:43:33.677Z,24.86
2022-08-26T16:46:00.637Z,24.80
2022-08-26T16:48:27.597Z,24.44
2022-08-26T16:50:55.718Z,24.52
2022-08-26T16:53:23.575Z,24.35
2022-08-26T16:55:51.333Z,24.27
2022-08-26T16:58:21.992Z,24.12
2022-08-26T17:00:49.498Z,24.27
2022-08-26T17:03:16.084Z,24.72
2022-08-26T17:05:42.867Z,24.19
2022-08-26T17:08:09.679Z,24.26
2022-08-26T17:10:36.549Z,24.33
2022-08-26T17:13:03.359Z,24.23
2022-08-26T17:15:30.166Z,24.53
2022-08-26T17:17:57.158Z,24.24
2022-08-26T17:20:25.105Z,24.32
2022-08-26T17:22:54.035Z,24.46
2022-08-26T17:25:31.760Z,24.70
2022-08-26T17:27:59.443Z,24.82
2022-08-26T17:30:26.367Z,24.96
2022-08-26T17:32:54.440Z,25.34
2022-08-26T17:35:22.175Z,25.34
2022-08-26T17:37:49.132Z,25.17
2022-08-26T17:40:22.327Z,24.90
2022-08-26T17:42:49.657Z,24.76
2022-08-26T17:45:16.915Z,25.01
2022-08-26T17:47:44.231Z,24.87
2022-08-26T17:50:14.679Z,24.95
2022-08-26T17:52:42.050Z,24.78
2022-08-26T17:55:11.556Z,24.85
2022-08-26T17:57:40.864Z,24.98
2022-08-26T18:00:15.007Z,25.06
2022-08-26T18:02:42.272Z,24.47
2022-08-26T18:05:11.774Z,24.87
2022-08-26T18:07:41.397Z,24.92
2022-08-26T18:10:13.297Z,25.09
2022-08-26T18:12:41.008Z,24.33
2022-08-26T18:15:09.741Z,24.77
2022-08-26T18:17:39.151Z,24.92
2022-08-26T18:20:11.939Z,24.96
2022-08-26T18:22:38.617Z,25.14
2022-08-26T18:25:06.257Z,24.83
2022-08-26T18:27:33.186Z,24.65
2022-08-26T18:30:00.297Z,24.76
2022-08-26T18:32:27.175Z,25.06
2022-08-26T18:34:54.081Z,24.69
2022-08-26T18:37:20.781Z,24.77
2022-08-26T18:39:47.407Z,24.63
2022-08-26T18:42:14.521Z,24.68
2022-08-26T18:44:41.138Z,24.29
2022-08-26T18:47:08.017Z,24.43
2022-08-26T18:49:34.829Z,24.64
2022-08-26T18:52:01.541Z,24.36
2022-08-26T18:54:28.227Z,24.59
2022-08-26T18:56:54.980Z,24.54
2022-08-26T18:59:27.948Z,24.77
2022-08-26T19:01:57.919Z,24.76
2022-08-26T19:04:24.776Z,24.83
2022-08-26T19:06:52.627Z,24.89
2022-08-26T19:09:20.855Z,25.09
2022-08-26T19:11:49.610Z,25.09
2022-08-26T19:14:16.420Z,24.99
2022-08-26T19:16:46.080Z,24.50
2022-08-26T19:19:12.962Z,24.48
2022-08-26T19:21:40.333Z,24.69
2022-08-26T19:24:17.711Z,24.69
2022-08-26T19:26:46.830Z,24.61
2022-08-26T19:29:13.830Z,24.62
2022-08-26T19:31:42.235Z,24.93
2022-08-26T19:34:11.248Z,24.51
2022-08-26T19:36:38.207Z,25.17
2022-08-26T19:39:08.247Z,24.85
2022-08-26T19:41:37.931Z,24.81
2022-08-26T19:44:11.509Z,24.98
2022-08-26T19:49:10.297Z,25.10
2022-08-26T19:51:37.141Z,24.80
2022-08-26T19:54:04.410Z,24.44
2022-08-26T19:56:31.067Z,24.61
2022-08-26T19:58:58.157Z,24.43
2022-08-26T20:01:25.472Z,24.57
2022-08-26T20:03:52.495Z,24.75
2022-08-26T20:06:20.218Z,24.76
2022-08-26T20:08:47.860Z,24.68
2022-08-26T20:11:19.030Z,24.72
2022-08-26T20:13:47.377Z,24.52
2022-08-26T20:16:15.411Z,24.71
2022-08-26T20:19:02.697Z,24.82
2022-08-26T20:21:34.220Z,24.66
2022-08-26T20:24:10.399Z,24.52
2022-08-26T20:26:39.079Z,24.31
2022-08-26T20:29:06.985Z,24.18
2022-08-26T20:31:35.424Z,24.43
2022-08-26T20:34:02.429Z,24.17
2022-08-26T20:36:29.576Z,24.10
2022-08-26T20:38:57.780Z,24.22
2022-08-26T20:41:25.809Z,24.30
2022-08-26T20:43:53.892Z,24.51
2022-08-26T20:46:24.551Z,24.37
2022-08-26T20:48:52.200Z,24.17
2022-08-26T20:51:19.204Z,24.65
2022-08-26T20:53:46.733Z,24.46
2022-08-26T20:56:15.610Z,24.34
2022-08-26T20:58:42.444Z,24.44
2022-08-26T21:01:18.468Z,24.28
2022-08-26T21:03:46.178Z,24.37
2022-08-26T21:06:13.027Z,24.34
2022-08-26T21:08:42.601Z,24.45
2022-08-26T21:11:11.530Z,24.43
2022-08-26T21:13:54.469Z,24.63
2022-08-26T21:16:25.181Z,24.40
2022-08-26T21:18:52.503Z,24.27
2022-08-26T21:21:22.858Z,24.23
2022-08-26T21:23:52.239Z,24.23
2022-08-26T21:26:19.181Z,24.17
2022-08-26T21:28:46.455Z,24.28
2022-08-26T21:31:15.459Z,24.46
2022-08-26T21:33:42.551Z,24.22
2022-08-26T21:36:10.316Z,24.25
2022-08-26T21:38:37.503Z,24.22
2022-08-26T21:41:05.658Z,24.57
2022-08-26T21:43:35.008Z,24.63
2022-08-26T21:46:11.716Z,24.24
2022-08-26T21:48:39.257Z,24.05
2022-08-26T21:51:06.869Z,24.04
2022-08-26T21:53:33.722Z,24.02
2022-08-26T21:56:05.500Z,23.92
2022-08-26T21:58:32.340Z,23.85
2022-08-26T22:00:59.583Z,23.97
2022-08-26T22:03:26.218Z,23.98
2022-08-26T22:05:52.993Z,23.76
2022-08-26T22:08:23.054Z,23.64
2022-08-26T22:10:55.092Z,23.66
2022-08-26T22:13:23.061Z,23.73
2022-08-26T22:15:50.096Z,23.78
2022-08-26T22:18:17.645Z,23.66
2022-08-26T22:20:44.407Z,23.80
2022-08-26T22:23:11.149Z,23.48
2022-08-26T22:25:37.900Z,23.86
2022-08-26T22:28:05.083Z,24.16
2022-08-26T22:30:31.854Z,24.14
2022-08-26T22:32:58.520Z,23.98
2022-08-26T22:35:29.172Z,23.97
2022-08-26T22:37:57.151Z,23.79
2022-08-26T22:40:24.424Z,23.86
2022-08-26T22:42:57.893Z,23.86
2022-08-26T22:45:27.477Z,23.65
2022-08-26T22:47:54.204Z,23.74
2022-08-26T22:50:21.132Z,23.78
2022-08-26T22:52:47.805Z,23.81
2022-08-26T22:55:14.764Z,23.88
2022-08-26T22:57:42.123Z,23.92
2022-08-26T23:00:13.630Z,23.98
2022-08-26T23:02:41.384Z,23.67
2022-08-26T23:05:08.974Z,23.68
2022-08-26T23:07:36.404Z,23.65
2022-08-26T23:10:06.533Z,23.68
2022-08-26T23:12:33.980Z,23.54
2022-08-26T23:15:01.375Z,23.45
2022-08-26T23:17:28.169Z,23.49
2022-08-26T23:19:55.299Z,23.29
2022-08-26T23:22:21.878Z,24.00
2022-08-26T23:24:48.555Z,23.60
2022-08-26T23:27:15.312Z,23.63
2022-08-26T23:29:42.568Z,23.60
2022-08-26T23:32:09.680Z,23.57
2022-08-26T23:34:55.426Z,23.56
2022-08-26T23:37:23.451Z,23.58
2022-08-26T23:39:54.069Z,23.57
2022-08-26T23:42:21.185Z,23.54
2022-08-26T23:44:47.819Z,23.67
2022-08-26T23:47:15.227Z,23.48
2022-08-26T23:49:42.157Z,23.45
2022-08-26T23:52:27.422Z,23.56
2022-08-26T23:54:54.282Z,23.73
2022-08-26T23:57:22.923Z,23.61
2022-08-26T23:59:49.728Z,23.42
